createdAt,value
2022-10-26T00:01:16.219Z,8.80
2022-10-26T00:03:44.917Z,8.90
2022-10-26T00:06:17.160Z,8.90
2022-10-26T00:08:44.738Z,8.90
2022-10-26T00:11:12.518Z,8.90
2022-10-26T00:13:40.400Z,9.00
2022-10-26T00:16:12.629Z,9.00
2022-10-26T00:18:40.344Z,9.00
2022-10-26T00:21:08.329Z,9.00
2022-10-26T00:23:35.778Z,9.00
2022-10-26T00:26:03.138Z,9.00
2022-10-26T00:28:30.444Z,9.00
2022-10-26T00:31:06.198Z,9.00
2022-10-26T00:33:33.361Z,9.00
2022-10-26T00:36:00.369Z,9.10
2022-10-26T00:38:30.067Z,9.10
2022-10-26T00:43:27.709Z,9.20
2022-10-26T00:45:56.857Z,9.20
2022-10-26T00:48:33.260Z,9.20
2022-10-26T00:51:06.222Z,9.20
2022-10-26T00:53:33.600Z,9.30
2022-10-26T00:56:02.210Z,9.30
2022-10-26T00:58:29.451Z,9.30
2022-10-26T01:00:56.814Z,9.30
2022-10-26T01:03:28.018Z,9.30
2022-10-26T01:05:57.651Z,9.30
2022-10-26T01:08:26.297Z,9.40
2022-10-26T01:10:53.625Z,9.40
2022-10-26T01:13:21.222Z,9.40
2022-10-26T01:16:03.727Z,9.40
2022-10-26T01:18:41.499Z,9.40
2022-10-26T01:21:34.431Z,9.40
2022-10-26T01:24:10.449Z,9.40
2022-10-26T01:27:04.282Z,9.30
2022-10-26T01:30:09.523Z,9.40
2022-10-26T01:32:56.327Z,9.40
2022-10-26T01:35:35.959Z,9.40
2022-10-26T01:38:31.231Z,9.40
2022-10-26T01:41:07.083Z,9.40
2022-10-26T01:43:39.942Z,9.40
2022-10-26T01:46:09.753Z,9.40
2022-10-26T01:48:38.228Z,9.40
2022-10-26T01:51:07.416Z,9.40
2022-10-26T01:53:34.323Z,9.40
2022-10-26T01:56:02.418Z,9.40
2022-10-26T01:58:50.895Z,9.50
2022-10-26T02:01:52.117Z,9.50
2022-10-26T02:04:46.719Z,9.50
2022-10-26T02:07:39.192Z,9.50
2022-10-26T02:10:32.288Z,9.50
2022-10-26T02:13:16.056Z,9.50
2022-10-26T02:15:45.996Z,9.50
2022-10-26T02:18:57.820Z,9.50
2022-10-26T02:21:34.212Z,9.50
2022-10-26T02:24:01.910Z,9.50
2022-10-26T02:26:31.349Z,9.50
2022-10-26T02:29:01.938Z,9.60
2022-10-26T02:31:30.612Z,9.60
2022-10-26T02:34:02.158Z,9.60
2022-10-26T02:36:33.557Z,9.60
2022-10-26T02:39:03.337Z,9.60
2022-10-26T02:41:32.530Z,9.60
2022-10-26T02:44:27.503Z,9.60
2022-10-26T02:46:55.736Z,9.70
2022-10-26T02:49:23.010Z,9.70
2022-10-26T02:52:03.171Z,9.60
2022-10-26T02:54:36.821Z,9.70
2022-10-26T02:57:33.206Z,9.70
2022-10-26T03:00:01.021Z,9.70
2022-10-26T03:02:30.203Z,9.80
2022-10-26T03:05:06.467Z,9.70
2022-10-26T03:07:33.358Z,9.70
2022-10-26T03:10:00.260Z,9.80
2022-10-26T03:12:27.155Z,9.80
2022-10-26T03:14:54.036Z,9.80
2022-10-26T03:17:20.882Z,9.80
2022-10-26T03:19:47.841Z,9.80
2022-10-26T03:22:14.712Z,9.80
2022-10-26T03:24:41.623Z,9.80
2022-10-26T03:27:08.459Z,9.80
2022-10-26T03:29:35.340Z,9.80
2022-10-26T03:32:02.295Z,9.90
2022-10-26T03:34:29.227Z,9.80
2022-10-26T03:36:56.158Z,9.90
2022-10-26T03:39:23.083Z,9.90
2022-10-26T03:41:50.024Z,9.90
2022-10-26T03:44:16.976Z,9.90
2022-10-26T03:46:43.881Z,9.90
2022-10-26T03:49:10.727Z,10.00
2022-10-26T03:51:37.616Z,10.00
2022-10-26T03:54:05.431Z,10.00
2022-10-26T03:56:32.393Z,10.00
2022-10-26T03:58:59.361Z,10.10
2022-10-26T04:01:26.365Z,10.00
2022-10-26T04:03:53.357Z,10.00
2022-10-26T04:06:20.323Z,10.00
2022-10-26T04:08:47.204Z,10.00
2022-10-26T04:11:14.155Z,10.00
2022-10-26T04:13:41.073Z,10.00
2022-10-26T04:16:08.119Z,10.00
2022-10-26T04:18:35.130Z,10.00
2022-10-26T04:21:02.378Z,10.00
2022-10-26T04:23:29.311Z,10.00
2022-10-26T04:25:56.175Z,10.00
2022-10-26T04:28:23.086Z,10.10
2022-10-26T04:30:50.013Z,10.00
2022-10-26T04:33:16.850Z,10.10
2022-10-26T04:35:43.703Z,10.10
2022-10-26T04:38:10.680Z,10.10
2022-10-26T04:40:37.602Z,10.10
2022-10-26T04:43:04.721Z,10.20
2022-10-26T04:45:31.806Z,10.20
2022-10-26T04:48:01.625Z,10.30
2022-10-26T04:50:28.639Z,10.30
2022-10-26T04:52:55.653Z,10.30
2022-10-26T04:55:22.751Z,10.30
2022-10-26T04:57:49.848Z,10.30
2022-10-26T05:00:17.011Z,10.30
2022-10-26T05:02:43.967Z,10.30
2022-10-26T05:05:14.117Z,10.40
2022-10-26T05:07:42.063Z,10.40
2022-10-26T05:10:09.767Z,10.40
2022-10-26T05:12:36.644Z,10.40
2022-10-26T05:15:06.386Z,10.40
2022-10-26T05:17:35.393Z,10.50
2022-10-26T05:20:06.054Z,10.40
2022-10-26T05:22:32.933Z,10.40
2022-10-26T05:24:59.799Z,10.40
2022-10-26T05:27:26.730Z,10.50
2022-10-26T05:29:53.708Z,10.50
2022-10-26T05:32:20.693Z,10.50
2022-10-26T05:34:47.953Z,10.50
2022-10-26T05:37:14.853Z,10.50
2022-10-26T05:39:43.471Z,10.50
2022-10-26T05:42:10.350Z,10.50
2022-10-26T05:44:37.258Z,10.40
2022-10-26T05:47:04.267Z,10.40
2022-10-26T05:49:31.116Z,10.40
2022-10-26T05:51:58.026Z,10.40
2022-10-26T05:54:25.019Z,10.40
2022-10-26T05:56:52.222Z,10.40
2022-10-26T05:59:19.310Z,10.40
2022-10-26T06:02:18.247Z,10.40
2022-10-26T06:04:49.680Z,10.40
2022-10-26T06:07:20.939Z,10.40
2022-10-26T06:09:48.626Z,10.40
2022-10-26T06:12:19.273Z,10.40
2022-10-26T06:14:47.315Z,10.50
2022-10-26T06:17:32.747Z,10.50
2022-10-26T06:20:18.127Z,10.60
2022-10-26T06:22:59.361Z,10.60
2022-10-26T06:25:35.246Z,10.60
2022-10-26T06:28:24.029Z,10.60
2022-10-26T06:30:51.893Z,10.60
2022-10-26T06:33:28.976Z,10.70
2022-10-26T06:36:13.517Z,10.70
2022-10-26T06:38:44.494Z,10.70
2022-10-26T06:41:15.533Z,10.70
2022-10-26T06:43:42.743Z,10.80
2022-10-26T06:46:33.995Z,10.80
2022-10-26T06:49:03.663Z,10.90
2022-10-26T06:51:31.960Z,10.90
2022-10-26T06:54:24.238Z,11.00
2022-10-26T06:56:52.776Z,11.00
2022-10-26T06:59:36.818Z,11.10
2022-10-26T07:02:06.412Z,11.10
2022-10-26T07:04:33.897Z,11.20
2022-10-26T07:07:00.828Z,11.20
2022-10-26T07:09:27.723Z,11.30
2022-10-26T07:11:54.705Z,11.30
2022-10-26T07:14:21.620Z,11.40
2022-10-26T07:16:48.526Z,11.50
2022-10-26T07:19:15.528Z,11.60
2022-10-26T07:21:42.485Z,11.70
2022-10-26T07:24:09.543Z,11.70
2022-10-26T07:26:36.551Z,11.70
2022-10-26T07:29:03.640Z,11.80
2022-10-26T07:31:30.602Z,11.90
2022-10-26T07:33:57.714Z,11.90
2022-10-26T07:36:24.716Z,12.00
2022-10-26T07:38:53.386Z,12.10
2022-10-26T07:41:20.682Z,12.20
2022-10-26T07:43:49.119Z,12.30
2022-10-26T07:46:16.351Z,12.50
2022-10-26T07:51:11.271Z,12.80
2022-10-26T07:53:38.188Z,12.80
2022-10-26T07:56:05.402Z,13.00
2022-10-26T07:58:32.539Z,13.10
2022-10-26T08:01:09.662Z,13.20
2022-10-26T08:03:36.884Z,13.30
2022-10-26T08:06:05.176Z,13.40
2022-10-26T08:08:32.492Z,13.50
2022-10-26T08:11:00.228Z,13.60
2022-10-26T08:13:27.189Z,13.70
2022-10-26T08:15:58.716Z,13.80
2022-10-26T08:18:26.071Z,14.00
2022-10-26T08:20:56.371Z,14.20
2022-10-26T08:23:28.961Z,14.40
2022-10-26T08:26:00.184Z,14.70
2022-10-26T08:28:27.964Z,15.00
2022-10-26T08:30:55.636Z,15.30
2022-10-26T08:33:26.009Z,15.60
2022-10-26T08:36:02.049Z,15.60
2022-10-26T08:38:29.699Z,15.40
2022-10-26T08:40:58.141Z,15.30
2022-10-26T08:43:41.978Z,15.20
2022-10-26T08:46:14.464Z,15.10
2022-10-26T08:48:47.521Z,15.20
2022-10-26T08:51:14.388Z,15.50
2022-10-26T08:53:54.427Z,17.00
2022-10-26T08:56:26.983Z,21.50
2022-10-26T08:59:20.526Z,26.00
2022-10-26T09:01:47.474Z,27.60
2022-10-26T09:04:14.327Z,27.70
2022-10-26T09:06:57.951Z,29.40
2022-10-26T09:09:46.665Z,29.30
2022-10-26T09:12:34.588Z,30.50
2022-10-26T09:15:16.716Z,29.70
2022-10-26T09:18:08.724Z,30.30
2022-10-26T09:21:11.995Z,30.30
2022-10-26T09:23:57.498Z,30.20
2022-10-26T09:26:39.548Z,30.30
2022-10-26T09:29:13.141Z,28.20
2022-10-26T09:31:47.125Z,28.60
2022-10-26T09:34:25.391Z,27.90
2022-10-26T09:36:55.783Z,28.00
2022-10-26T09:39:32.664Z,25.40
2022-10-26T09:42:12.745Z,26.40
2022-10-26T09:44:55.091Z,27.30
2022-10-26T09:47:56.467Z,27.30
2022-10-26T09:50:35.973Z,26.50
2022-10-26T09:53:03.976Z,29.20
2022-10-26T09:55:33.051Z,29.20
2022-10-26T09:58:06.193Z,27.40
2022-10-26T10:03:02.544Z,29.60
2022-10-26T10:08:26.243Z,34.70
2022-10-26T10:11:06.853Z,33.10
2022-10-26T10:13:37.236Z,31.70
2022-10-26T10:16:08.556Z,32.50
2022-10-26T10:18:36.559Z,33.30
2022-10-26T10:21:05.741Z,28.10
2022-10-26T10:23:35.334Z,26.60
2022-10-26T10:26:13.730Z,30.10
2022-10-26T10:28:42.764Z,31.60
2022-10-26T10:31:27.620Z,31.60
2022-10-26T10:33:55.363Z,33.00
2022-10-26T10:36:24.558Z,34.30
2022-10-26T10:38:53.437Z,31.80
2022-10-26T10:41:37.679Z,31.90
2022-10-26T10:44:22.721Z,31.30
2022-10-26T10:46:49.738Z,31.00
2022-10-26T10:49:29.143Z,31.10
2022-10-26T10:51:57.004Z,29.90
2022-10-26T10:54:34.434Z,30.30
2022-10-26T10:57:23.236Z,31.10
2022-10-26T11:00:03.978Z,30.40
2022-10-26T11:03:01.853Z,31.30
2022-10-26T11:05:31.824Z,31.50
2022-10-26T11:08:09.086Z,31.10
2022-10-26T11:10:47.036Z,30.00
2022-10-26T11:13:25.855Z,27.70
2022-10-26T11:15:59.507Z,28.70
2022-10-26T11:18:37.323Z,28.70
2022-10-26T11:21:28.859Z,29.50
2022-10-26T11:24:01.842Z,30.30
2022-10-26T11:26:35.558Z,30.80
2022-10-26T11:29:10.898Z,30.60
2022-10-26T11:31:51.192Z,29.90
2022-10-26T11:34:27.312Z,28.40
2022-10-26T11:37:02.239Z,27.80
2022-10-26T11:39:58.883Z,27.20
2022-10-26T11:42:37.648Z,27.30
2022-10-26T11:45:19.900Z,26.90
2022-10-26T11:48:14.728Z,26.00
2022-10-26T11:50:54.356Z,26.80
2022-10-26T11:53:38.843Z,26.70
2022-10-26T11:56:14.012Z,27.90
2022-10-26T11:58:42.098Z,28.50
2022-10-26T12:01:12.160Z,28.30
2022-10-26T12:03:48.323Z,27.70
2022-10-26T12:06:21.090Z,28.30
2022-10-26T12:08:53.748Z,27.90
2022-10-26T12:11:42.230Z,27.60
2022-10-26T12:14:40.645Z,26.00
2022-10-26T12:17:16.558Z,25.50
2022-10-26T12:19:46.301Z,25.40
2022-10-26T12:22:16.394Z,25.40
2022-10-26T12:25:04.688Z,25.60
2022-10-26T12:27:31.596Z,26.20
2022-10-26T12:30:17.333Z,25.10
2022-10-26T12:32:44.217Z,24.60
2022-10-26T12:35:40.054Z,24.60
2022-10-26T12:38:27.952Z,24.00
2022-10-26T12:41:09.986Z,23.50
2022-10-26T12:43:39.397Z,23.50
2022-10-26T12:46:12.625Z,22.90
2022-10-26T12:48:48.380Z,22.90
2022-10-26T12:51:21.688Z,22.80
2022-10-26T12:54:04.066Z,22.50
2022-10-26T12:56:55.320Z,22.30
2022-10-26T12:59:50.169Z,22.50
2022-10-26T13:02:58.453Z,22.60
2022-10-26T13:05:33.795Z,22.20
2022-10-26T13:08:07.702Z,22.20
2022-10-26T13:10:36.402Z,21.90
2022-10-26T13:13:06.331Z,21.90
2022-10-26T13:15:52.223Z,21.90
2022-10-26T13:18:21.014Z,22.00
2022-10-26T13:21:15.094Z,21.90
2022-10-26T13:23:48.060Z,21.80
2022-10-26T13:26:17.572Z,21.80
2022-10-26T13:28:54.672Z,21.60
2022-10-26T13:31:34.344Z,21.50
2022-10-26T13:34:03.754Z,21.60
2022-10-26T13:36:39.123Z,21.60
2022-10-26T13:39:28.835Z,21.40
2022-10-26T13:41:58.493Z,21.50
2022-10-26T13:44:40.402Z,21.30
2022-10-26T13:47:39.357Z,21.20
2022-10-26T13:50:11.520Z,21.10
2022-10-26T13:52:45.202Z,21.10
2022-10-26T13:55:39.968Z,21.10
2022-10-26T13:58:14.695Z,21.20
2022-10-26T14:01:00.988Z,21.00
2022-10-26T14:03:28.290Z,21.00
2022-10-26T14:05:56.063Z,21.00
2022-10-26T14:08:23.827Z,21.00
2022-10-26T14:10:57.170Z,20.90
2022-10-26T14:13:26.614Z,20.90
2022-10-26T14:15:56.499Z,20.90
2022-10-26T14:18:30.516Z,20.90
2022-10-26T14:21:00.112Z,20.90
2022-10-26T14:23:45.117Z,21.00
2022-10-26T14:26:37.808Z,20.90
2022-10-26T14:29:14.397Z,20.90
2022-10-26T14:31:41.256Z,20.90
2022-10-26T14:34:12.308Z,20.90
2022-10-26T14:36:41.700Z,20.80
2022-10-26T14:39:20.889Z,20.70
2022-10-26T14:41:49.469Z,20.70
2022-10-26T14:44:20.373Z,20.70
2022-10-26T14:46:47.992Z,20.60
2022-10-26T14:49:25.683Z,20.60
2022-10-26T14:52:04.147Z,20.50
2022-10-26T14:54:32.234Z,20.50
2022-10-26T14:57:02.550Z,20.40
2022-10-26T14:59:31.447Z,20.40
2022-10-26T15:02:13.577Z,20.30
2022-10-26T15:04:42.158Z,20.30
2022-10-26T15:07:13.264Z,20.30
2022-10-26T15:09:44.048Z,20.20
2022-10-26T15:12:22.521Z,20.10
2022-10-26T15:14:51.079Z,20.00
2022-10-26T15:17:24.035Z,20.00
2022-10-26T15:19:52.431Z,19.90
2022-10-26T15:22:31.813Z,19.90
2022-10-26T15:25:05.705Z,19.80
2022-10-26T15:27:32.893Z,19.70
2022-10-26T15:30:22.503Z,19.60
2022-10-26T15:32:50.215Z,19.60
2022-10-26T15:35:25.415Z,19.50
2022-10-26T15:37:53.769Z,19.40
2022-10-26T15:40:22.796Z,19.40
2022-10-26T15:42:52.987Z,19.20
2022-10-26T15:45:25.703Z,19.20
2022-10-26T15:47:55.519Z,19.10
2022-10-26T15:50:28.390Z,19.10
2022-10-26T15:53:01.600Z,19.00
2022-10-26T15:55:30.319Z,18.90
2022-10-26T15:57:57.382Z,18.80
2022-10-26T16:00:24.353Z,18.70
2022-10-26T16:02:51.273Z,18.70
2022-10-26T16:05:18.459Z,18.60
2022-10-26T16:07:47.743Z,18.40
2022-10-26T16:10:20.382Z,18.40
2022-10-26T16:12:47.384Z,18.20
2022-10-26T16:15:23.050Z,18.10
2022-10-26T16:17:50.763Z,18.10
2022-10-26T16:20:24.644Z,18.00
2022-10-26T16:22:52.879Z,18.00
2022-10-26T16:25:25.062Z,17.90
2022-10-26T16:27:53.773Z,17.90
2022-10-26T16:30:24.714Z,17.70
2022-10-26T16:32:54.075Z,17.60
2022-10-26T16:35:21.092Z,17.40
2022-10-26T16:37:47.903Z,17.30
2022-10-26T16:40:14.858Z,17.30
2022-10-26T16:42:43.986Z,17.20
2022-10-26T16:45:12.456Z,17.10
2022-10-26T16:47:40.183Z,17.00
2022-10-26T16:50:12.735Z,16.90
2022-10-26T16:52:40.331Z,16.80
2022-10-26T16:55:08.291Z,16.70
2022-10-26T16:57:36.208Z,16.60
2022-10-26T17:00:05.254Z,16.50
2022-10-26T17:02:32.247Z,16.40
2022-10-26T17:05:01.363Z,16.30
2022-10-26T17:07:31.366Z,16.20
2022-10-26T17:09:58.313Z,16.20
2022-10-26T17:14:58.910Z,16.10
2022-10-26T17:17:26.090Z,16.00
2022-10-26T17:19:53.033Z,15.90
2022-10-26T17:22:20.034Z,15.90
2022-10-26T17:24:46.976Z,15.80
2022-10-26T17:27:13.881Z,15.70
2022-10-26T17:29:40.769Z,15.70
2022-10-26T17:32:07.640Z,15.60
2022-10-26T17:34:34.624Z,15.60
2022-10-26T17:37:01.634Z,15.50
2022-10-26T17:39:29.421Z,15.50
2022-10-26T17:41:56.513Z,15.40
2022-10-26T17:44:24.043Z,15.50
2022-10-26T17:46:51.039Z,15.40
2022-10-26T17:49:18.066Z,15.40
2022-10-26T17:51:45.152Z,15.40
2022-10-26T17:54:12.101Z,15.30
2022-10-26T17:56:39.339Z,15.20
2022-10-26T17:59:11.631Z,15.20
2022-10-26T18:01:39.013Z,15.10
2022-10-26T18:04:09.133Z,15.10
2022-10-26T18:06:36.084Z,15.30
2022-10-26T18:09:03.076Z,15.40
2022-10-26T18:14:02.186Z,15.40
2022-10-26T18:16:30.461Z,15.50
2022-10-26T18:19:00.636Z,15.50
2022-10-26T18:21:29.620Z,15.50
2022-10-26T18:23:56.819Z,15.50
2022-10-26T18:26:26.560Z,15.70
2022-10-26T18:28:55.222Z,15.80
2022-10-26T18:31:23.755Z,15.80
2022-10-26T18:33:55.833Z,15.80
2022-10-26T18:36:22.789Z,15.90
2022-10-26T18:38:49.812Z,16.00
2022-10-26T18:41:18.769Z,16.00
2022-10-26T18:43:50.565Z,15.90
2022-10-26T18:46:24.109Z,15.90
2022-10-26T18:48:58.048Z,15.90
2022-10-26T18:51:29.070Z,15.90
2022-10-26T18:53:56.847Z,15.80
2022-10-26T18:56:25.015Z,15.90
2022-10-26T18:59:01.371Z,15.90
2022-10-26T19:01:42.280Z,15.90
2022-10-26T19:04:11.243Z,15.90
2022-10-26T19:06:40.864Z,15.80
2022-10-26T19:09:10.088Z,15.80
2022-10-26T19:11:37.917Z,15.70
2022-10-26T19:14:05.318Z,15.60
2022-10-26T19:16:48.548Z,15.60
2022-10-26T19:19:17.019Z,15.60
2022-10-26T19:21:48.896Z,15.50
2022-10-26T19:24:18.907Z,15.50
2022-10-26T19:26:46.837Z,15.50
2022-10-26T19:29:16.393Z,15.40
2022-10-26T19:31:45.114Z,15.40
2022-10-26T19:34:15.394Z,15.40
2022-10-26T19:36:45.171Z,15.40
2022-10-26T19:39:15.112Z,15.30
2022-10-26T19:41:42.536Z,15.30
2022-10-26T19:44:13.671Z,15.20
2022-10-26T19:46:40.698Z,15.20
2022-10-26T19:49:23.487Z,15.10
2022-10-26T19:51:54.194Z,15.00
2022-10-26T19:54:21.214Z,14.80
2022-10-26T19:56:48.200Z,14.70
2022-10-26T19:59:15.264Z,14.60
2022-10-26T20:01:42.232Z,14.50
2022-10-26T20:04:09.195Z,14.40
2022-10-26T20:06:36.086Z,14.30
2022-10-26T20:09:03.588Z,14.30
2022-10-26T20:11:32.317Z,14.30
2022-10-26T20:13:59.638Z,14.20
2022-10-26T20:16:26.737Z,14.20
2022-10-26T20:18:53.837Z,14.20
2022-10-26T20:21:20.959Z,14.20
2022-10-26T20:23:47.925Z,14.20
2022-10-26T20:26:18.747Z,14.10
2022-10-26T20:28:48.806Z,14.00
2022-10-26T20:31:16.258Z,14.00
2022-10-26T20:33:43.804Z,13.90
2022-10-26T20:36:11.269Z,13.80
2022-10-26T20:38:39.929Z,13.80
2022-10-26T20:41:11.656Z,13.80
2022-10-26T20:43:42.749Z,13.80
2022-10-26T20:46:23.364Z,13.90
2022-10-26T20:48:51.598Z,13.90
2022-10-26T20:51:26.351Z,13.90
2022-10-26T20:54:14.031Z,13.90
2022-10-26T20:56:42.128Z,13.80
2022-10-26T20:59:43.138Z,13.70
2022-10-26T21:02:10.583Z,13.60
2022-10-26T21:04:38.884Z,13.50
2022-10-26T21:07:06.019Z,13.60
2022-10-26T21:09:36.533Z,13.70
2022-10-26T21:12:04.474Z,13.70
2022-10-26T21:14:35.797Z,13.70
2022-10-26T21:17:02.845Z,13.70
2022-10-26T21:19:29.812Z,13.70
2022-10-26T21:21:56.824Z,13.60
2022-10-26T21:24:23.862Z,13.50
2022-10-26T21:26:51.346Z,13.40
2022-10-26T21:29:18.760Z,13.30
2022-10-26T21:31:45.636Z,13.30
2022-10-26T21:34:12.614Z,13.20
2022-10-26T21:36:39.499Z,13.30
2022-10-26T21:39:06.490Z,13.20
2022-10-26T21:41:37.356Z,13.20
2022-10-26T21:44:09.919Z,13.20
2022-10-26T21:46:49.252Z,13.00
2022-10-26T21:49:16.178Z,13.00
2022-10-26T21:51:43.432Z,13.00
2022-10-26T21:54:10.590Z,13.00
2022-10-26T21:56:37.674Z,12.90
2022-10-26T21:59:05.885Z,12.90
2022-10-26T22:01:33.129Z,12.90
2022-10-26T22:04:00.166Z,12.90
2022-10-26T22:06:27.081Z,12.90
2022-10-26T22:08:54.228Z,12.80
2022-10-26T22:11:23.460Z,12.80
2022-10-26T22:13:52.021Z,12.80
2022-10-26T22:16:23.176Z,12.80
2022-10-26T22:18:52.112Z,12.70
2022-10-26T22:21:20.375Z,12.70
2022-10-26T22:23:48.051Z,12.70
2022-10-26T22:26:20.280Z,12.60
2022-10-26T22:28:49.834Z,12.60
2022-10-26T22:34:13.093Z,12.50
2022-10-26T22:36:40.109Z,12.50
2022-10-26T22:39:07.015Z,12.40
2022-10-26T22:41:34.052Z,12.40
2022-10-26T22:44:00.987Z,12.40
2022-10-26T22:46:29.053Z,12.40
2022-10-26T22:48:56.720Z,12.30
2022-10-26T22:51:25.440Z,12.30
2022-10-26T22:53:56.847Z,12.30
2022-10-26T22:58:52.478Z,12.20
2022-10-26T23:01:28.461Z,12.20
2022-10-26T23:03:58.110Z,12.20
2022-10-26T23:06:27.212Z,12.20
2022-10-26T23:08:54.111Z,12.10
2022-10-26T23:11:23.307Z,12.10
2022-10-26T23:14:01.241Z,12.10
2022-10-26T23:16:29.228Z,12.00
2022-10-26T23:18:56.348Z,12.00
2022-10-26T23:23:52.175Z,12.00
2022-10-26T23:26:21.452Z,11.90
2022-10-26T23:28:49.439Z,11.90
2022-10-26T23:31:22.060Z,11.90
2022-10-26T23:33:53.071Z,11.90
2022-10-26T23:36:20.271Z,11.80
2022-10-26T23:38:48.010Z,11.80
2022-10-26T23:41:15.148Z,11.80
2022-10-26T23:43:42.225Z,11.80
2022-10-26T23:46:09.322Z,11.80
2022-10-26T23:48:36.780Z,11.80
2022-10-26T23:51:03.970Z,11.70
2022-10-26T23:53:30.907Z,11.70
2022-10-26T23:55:57.759Z,11.60
2022-10-26T23:58:24.659Z,11.60
